Briefing drone pour Chevigny-saint-sauveur

Rechercher une autre localisation

Conditions de vol :


Nous sommes le : Jeudi 01 octobre 2020
Il est 12:07 UTC (14:07 LT)

Lever de soleil : 05:12 UTC (07:12 LT)
Coucher de soleil : 17:45 UTC (19:45 LT)

Météo

L'essentiel des conditions de vol

VIGILANCE MÉTÉO FRANCE - Côte-dOr (21)
Pas de vigilances particulieres
CARTES DES FRONTS
METAR de LFSD
LFSD 011200Z AUTO 18010KT 9999 BKN007 BKN031 BKN076 14/14 Q1005

Date d'émission: 01/10/2020
Heure d'émission: 12:00 UTC
Vent: 180° pour 10 KT (19 km/h)
Visibilité horizontale: > 10 km
Plafond :
- Nuages morcelés à 700ft (213m)
- Nuages morcelés à 3100ft (945m)
- Nuages morcelés à 7600ft (2317m)
Température: 14 °C
Point de rosée: 14 °C
Humidité: 100%
Pression (QNH): 1005 hPa
TAF de LFSD
LFSD 010600Z 0100/0124 CNL

Conditions prévues :

Heure d'émission : Bulletin éffectué le 01 à 00:00 UTC
Prévision : Valide du 01 a 00:00 UTC au 01 a 23:59 UTC
Nuages : à 0ft (0 m)
WEBCAM POUR CHEVIGNY-SAINT-SAUVEUR

Réglementation

Voler en sécurité

CARTES AERONAUTIQUE 1/500.000
CARTES VAC (LFSD)
SUP AIP




Chargement des AIP...
NOTAM (CHEVIGNY-SAINT-SAUVEUR + Terrain à proximité / FIR )




Chargement des NOTAMS...
CONTACT PREFECTURE 21
Côte-dOr (21) : pref-drone@cote-dor.gouv.fr


Avertissement : Les données mises à disposition sont indicatives. Oxygène Drone ne pourra être tenu responsable de dégâts causés aux biens et aux personnes.